サイパン島 の空港の天気 - METARとTAF

サイパン国際空港 ( PGSN / SPN ) - 北マリアナ諸島 サイパン島
飛行場実況気象(Metar)
観測時間10/14 18:54 ChST (10/14 08:54 UTC)
風向・風速東 4m/s
視程10km以上
天気現象
少しの雲 雲底高度 490m
全天の4割程度の雲 雲底高度 670m
気温27.2℃
湿度91%
気圧1013.5hPa
METARPGSN 140854Z 10008KT 10SM FEW016 SCT022 27/26 A2987 RMK AO2 SLP135 60000 T02720256 51006 $
過去の天気等 Google飛行場航空写真 Wunderground天気予報

過去48時間のMETAR

飛行場予報(TAF)
発表時間: 10/14 15:27 ChST (10/14 05:27 UTC)
予報対象時間: 14日16時 ChST ~ 15日16時 ChST
風向・風速東南東 4m/s
視程10km以上
天気現象周辺でしゅう雨
全天の4割程度の雲 雲底高度 730m
全天の8割程度の雲 雲底高度 3050m
PGSN 140527Z 1406/1506 11008KT P6SM VCSH SCT024 BKN100